Weather at South Texas International at Edinburg Airport

Public forecast

Using degrees Fahrenheit for public forecast. Weather courtesy of forecast.io.

Current aviation weather report (METAR) for South Texas International at Edinburg Airport

Retrieved 2022/07/01 01:35 UTC (18 minutes ago):

KEBG 010135Z AUTO 09006KT 10SM CLR 31/24 A2990 RMK AO2 LTG DSNT SW T03070240 PWINO

Closest aviation forecast (TAF) to South Texas International at Edinburg Airport

Closest forecast is McAllen Miller International Airport, 17.1 nm (31.7 km) SSW. Retrieved 2022-07-01 00:22 UTC (2 hours ago):

TAF KMFE 302320Z 0100/0124 14010KT P6SM BKN250 FM011600 15013KT P6SM FEW050